Avery, Arkansas
Current Conditions -  °F | °C
As of 5:53 AM on Sunday 25 Jan 2015 (Local Time) from KLLQ Reporting Station
Clear Clear  
Wind Chill:   Ceiling: Unl
Heat Index:   Visibility: 10mi
Dew Point:   Wind: 9mph
Humidity: 70%   Direction: 230°SW
Pressure: 29.86"   Gusts: NA
Location:  33.9283°N, 91.468°W
Report Text: KLLQ 251153Z AUTO 23008KT 10SM CLR 06/01 A2986 RMK AO2 SLP112 T00560006 10072 20056 57017
Loading
Personal Weather Stations






























Interactive Weather Map New forecast layout! Learn more

10-Day Weather Forecast

Advertisements
Track Severe Weather on mobile